GMTT/TNG METAR and TAF weather

Enter ICAO airport designator
Station Type Date Time Source
GMTT METAR 2019/04/24 22:30 UTC NOAA

GMTT 242230Z 21010KT 8000 BKN016 SCT033 16/13 Q1016 NOSIG


Station Type Date Time Source
GMTT Decoded METAR 2019/04/24 22:30 UTC NOAA

Tanger Aerodrome , Morocco (GMTT) 35-44N 005-54W 21M
Apr 24, 2019 - 06:30 PM EDT / 2019.04.24 2230 UTC
Wind: from the SSW (210 degrees) at 12 MPH (10 KT):0
Visibility: 4 mile(s):0
Sky conditions: mostly cloudy
Temperature: 60 F (16 C)
Dew Point: 55 F (13 C)
Relative Humidity: 82%
Pressure (altimeter): 30.00 in. Hg (1016 hPa)
ob: GMTT 242230Z 21010KT 8000 BKN016 SCT033 16/13 Q1016 NOSIG
cycle: 22

Station Type Date Time Source
GMTT TAF 2019/04/24 18:30 UTC NOAA

TAF TAF GMTT 241700Z 2418/2524 22014KT 9999 SCT023
TEMPO 2423/2506 4000 RA BKN014 BKN020 PROB40
TEMPO 2506/2513 2000 SHRA BKN014 SCT020 FEW023TCU

Example: see airport list